Time;durP1;ratioP1;P1;durP2;ratioP2;P2;SDS_P1;SDS_P2;PMS_P1;PMS_P2;Temp;Humidity;BMP_temperature;BMP_pressure;BME280_temperature;BME280_humidity;BME280_pressure;Samples;Min_cycle;Max_cycle;Signal;HPM_P1;HPM_P2
2024/02/20 00:02:15;;;;;;;21.73;14.82;;;;;;;7.85;95.85;100884.19;5039913;28;20116;-78
2024/02/20 00:04:41;;;;;;;26.00;14.95;;;;;;;7.85;96.64;100871.75;5031414;28;20037;-78
2024/02/20 00:07:07;;;;;;;21.35;13.35;;;;;;;7.57;98.90;100857.41;5030880;28;20025;-78
2024/02/20 00:09:33;;;;;;;20.60;13.57;;;;;;;7.67;98.09;100863.28;5030175;28;20026;-79
2024/02/20 00:12:00;;;;;;;24.98;13.27;;;;;;;7.58;97.41;100843.97;5028668;28;20052;-78
2024/02/20 00:14:26;;;;;;;30.13;16.30;;;;;;;7.85;96.46;100870.94;5035589;28;20411;-79
2024/02/20 00:16:52;;;;;;;21.05;13.57;;;;;;;7.68;98.19;100866.75;5029671;28;20514;-78
2024/02/20 00:19:18;;;;;;;22.60;14.15;;;;;;;7.62;98.74;100855.88;5030320;28;20084;-78
2024/02/20 00:21:45;;;;;;;24.80;13.80;;;;;;;7.43;99.83;100840.44;5030143;28;20477;-78
2024/02/20 00:24:11;;;;;;;23.33;12.98;;;;;;;7.45;99.56;100865.78;5029842;28;20025;-78
2024/02/20 00:26:36;;;;;;;21.95;13.13;;;;;;;7.34;100.00;100852.13;5028997;28;20046;-78
2024/02/20 00:29:02;;;;;;;20.08;12.10;;;;;;;7.58;99.40;100843.97;5030595;28;20028;-78
2024/02/20 00:31:28;;;;;;;20.48;12.38;;;;;;;7.24;100.00;100839.09;5030331;28;20038;-78
2024/02/20 00:33:54;;;;;;;18.15;11.68;;;;;;;7.29;100.00;100854.50;5030368;28;20030;-78
2024/02/20 00:36:20;;;;;;;22.50;11.45;;;;;;;7.30;100.00;100858.81;5030359;28;20036;-78
2024/02/20 00:38:45;;;;;;;19.13;11.43;;;;;;;7.23;100.00;100838.28;5030498;28;20402;-78
2024/02/20 00:41:11;;;;;;;18.90;10.45;;;;;;;6.78;100.00;100824.03;5030034;28;20506;-77
2024/02/20 00:43:36;;;;;;;18.20;11.13;;;;;;;7.01;100.00;100863.00;5029480;28;20108;-78
2024/02/20 00:46:03;;;;;;;20.30;10.98;;;;;;;6.99;100.00;100833.16;5029990;28;20026;-77
2024/02/20 00:48:29;;;;;;;17.90;10.68;;;;;;;6.97;100.00;100843.13;5029097;28;20178;-78
2024/02/20 00:50:54;;;;;;;20.05;11.05;;;;;;;6.98;100.00;100827.00;5029774;28;20440;-78
2024/02/20 00:53:20;;;;;;;20.13;12.55;;;;;;;6.98;100.00;100832.31;5029498;28;20091;-79
2024/02/20 00:55:45;;;;;;;17.77;11.77;;;;;;;7.04;100.00;100820.19;5028748;28;20056;-78
2024/02/20 00:58:11;;;;;;;18.88;10.70;;;;;;;7.01;100.00;100826.69;5030059;28;20033;-78
2024/02/20 01:00:36;;;;;;;21.38;10.80;;;;;;;6.90;100.00;100813.00;5029751;28;20029;-78
2024/02/20 01:03:02;;;;;;;21.88;12.43;;;;;;;7.00;100.00;100818.91;5037845;28;20033;-78
2024/02/20 01:05:27;;;;;;;19.35;11.80;;;;;;;6.95;100.00;100823.91;5029759;28;20014;-78
2024/02/20 01:07:52;;;;;;;17.90;11.55;;;;;;;7.01;100.00;100812.59;5029984;28;20390;-78
2024/02/20 01:10:18;;;;;;;18.00;11.43;;;;;;;6.97;100.00;100819.25;5029745;28;20033;-80
2024/02/20 01:12:43;;;;;;;17.73;11.88;;;;;;;6.91;100.00;100812.84;5029086;28;20096;-78
2024/02/20 01:15:09;;;;;;;19.90;11.27;;;;;;;6.93;100.00;100818.78;5039854;28;20052;-78
2024/02/20 01:17:35;;;;;;;20.63;12.00;;;;;;;6.72;100.00;100795.56;5048290;28;20397;-78
2024/02/20 01:20:00;;;;;;;20.67;11.82;;;;;;;6.84;100.00;100794.16;5049439;28;20029;-77
2024/02/20 01:22:27;;;;;;;20.63;13.55;;;;;;;6.80;100.00;100808.75;5032548;28;20042;-78
2024/02/20 01:24:53;;;;;;;18.67;11.70;;;;;;;6.69;100.00;100803.84;5029508;28;20083;-78
2024/02/20 01:27:18;;;;;;;18.48;11.80;;;;;;;6.96;100.00;100812.28;5029341;28;20041;-78
2024/02/20 01:29:45;;;;;;;21.17;12.25;;;;;;;6.96;100.00;100818.41;5029289;28;20045;-78
2024/02/20 01:32:10;;;;;;;17.70;11.80;;;;;;;6.87;100.00;100800.94;5029275;28;20041;-78
2024/02/20 01:34:36;;;;;;;19.45;11.30;;;;;;;6.90;100.00;100783.84;5029265;28;20035;-78
2024/02/20 01:37:01;;;;;;;18.05;11.00;;;;;;;6.82;100.00;100796.16;5029301;28;20029;-78
2024/02/20 01:39:27;;;;;;;17.88;10.65;;;;;;;6.48;100.00;100766.53;5029378;28;20410;-78
2024/02/20 01:41:52;;;;;;;18.13;10.68;;;;;;;6.67;100.00;100795.25;5029144;28;20112;-78
2024/02/20 01:44:19;;;;;;;20.25;12.73;;;;;;;6.76;100.00;100806.63;5030787;28;20041;-78
2024/02/20 01:46:45;;;;;;;19.33;11.60;;;;;;;6.69;100.00;100814.47;5049023;28;20032;-79
2024/02/20 01:49:11;;;;;;;20.77;12.50;;;;;;;6.66;100.00;100783.00;5048848;28;20060;-78
2024/02/20 01:51:38;;;;;;;19.52;11.25;;;;;;;6.79;100.00;100800.97;5044667;28;20061;-78
2024/02/20 01:54:04;;;;;;;19.83;11.25;;;;;;;6.71;100.00;100791.25;5028744;28;20034;-78
2024/02/20 01:56:29;;;;;;;19.48;11.52;;;;;;;6.68;100.00;100804.03;5028598;28;20418;-78
2024/02/20 01:58:56;;;;;;;18.02;11.60;;;;;;;6.70;100.00;100802.03;5028418;28;20022;-78
2024/02/20 02:01:25;;;;;;;17.27;10.48;;;;;;;6.62;100.00;100800.28;5028419;28;20621;-78
2024/02/20 02:03:50;;;;;;;;;;;;;;;6.42;100.00;100795.41;5028656;28;20025;-78
2024/02/20 02:06:16;;;;;;;19.85;10.70;;;;;;;6.37;100.00;100781.81;5060317;28;19942;-78
2024/02/20 02:08:41;;;;;;;16.15;10.73;;;;;;;6.54;100.00;100800.28;5028861;28;20061;-78
2024/02/20 02:11:06;;;;;;;17.20;10.25;;;;;;;6.19;100.00;100771.50;5028414;28;20052;-78
2024/02/20 02:13:32;;;;;;;16.25;9.80;;;;;;;6.22;100.00;100775.63;5028515;28;20033;-79
2024/02/20 02:15:57;;;;;;;15.73;10.43;;;;;;;6.37;100.00;100781.81;5028815;28;20144;-78
2024/02/20 02:18:23;;;;;;;16.63;9.82;;;;;;;6.41;100.00;100785.78;5028241;28;20033;-78
2024/02/20 02:20:48;;;;;;;16.10;9.43;;;;;;;6.59;100.00;100796.13;5028410;28;20040;-78
2024/02/20 02:23:13;;;;;;;15.13;9.27;;;;;;;6.34;100.00;100787.50;5027715;28;20105;-78
2024/02/20 02:25:39;;;;;;;15.60;9.52;;;;;;;6.28;100.00;100772.28;5028157;28;20033;-78
2024/02/20 02:28:04;;;;;;;15.18;9.48;;;;;;;6.52;100.00;100791.69;5028158;28;20453;-78
2024/02/20 02:30:30;;;;;;;14.73;8.88;;;;;;;6.31;100.00;100779.88;5028431;28;20068;-78
2024/02/20 02:32:55;;;;;;;14.10;9.10;;;;;;;6.44;100.00;100780.16;5028106;28;20026;-78
2024/02/20 02:35:21;;;;;;;13.40;8.75;;;;;;;6.16;100.00;100790.38;5033563;28;20020;-78
2024/02/20 02:37:46;;;;;;;14.07;9.35;;;;;;;6.30;100.00;100786.19;5037291;28;20029;-79
2024/02/20 02:40:14;;;;;;;13.55;8.75;;;;;;;6.51;100.00;100788.22;5028269;28;20033;-78
2024/02/20 02:42:40;;;;;;;16.33;8.55;;;;;;;6.38;100.00;100772.91;5027861;28;20095;-78
2024/02/20 02:45:06;;;;;;;14.13;9.20;;;;;;;6.44;100.00;100776.69;5027528;28;20038;-78
2024/02/20 02:47:32;;;;;;;15.23;10.00;;;;;;;6.57;100.00;100770.81;5026551;28;20044;-79
2024/02/20 02:49:57;;;;;;;14.52;8.85;;;;;;;6.32;100.00;100781.53;5027770;28;20025;-77
2024/02/20 02:52:23;;;;;;;17.77;11.35;;;;;;;6.26;100.00;100797.31;5027891;28;20606;-77
2024/02/20 02:54:48;;;;;;;15.82;9.48;;;;;;;5.98;100.00;100787.97;5027335;28;20108;-78
2024/02/20 02:57:14;;;;;;;30.40;17.73;;;;;;;6.15;100.00;100795.84;5032352;28;20418;-77
2024/02/20 02:59:39;;;;;;;99.00;62.33;;;;;;;6.16;100.00;100769.19;5026987;28;20294;-78
2024/02/20 03:02:04;;;;;;;14.50;8.73;;;;;;;6.08;100.00;100797.53;5026502;28;20030;-78
2024/02/20 03:04:31;;;;;;;20.60;13.48;;;;;;;6.06;100.00;100767.75;5059363;28;20055;-77
2024/02/20 03:06:58;;;;;;;76.68;59.20;;;;;;;6.01;100.00;100760.34;5027634;28;20101;-78
2024/02/20 03:09:24;;;;;;;18.58;12.50;;;;;;;6.22;100.00;100779.09;5027400;28;20561;-79
2024/02/20 03:11:49;;;;;;;17.88;11.70;;;;;;;6.26;100.00;100803.41;5016328;28;20069;-78
2024/02/20 03:14:16;;;;;;;26.42;18.83;;;;;;;6.20;100.00;100788.22;5023542;28;20029;-78
2024/02/20 03:16:42;;;;;;;15.65;10.85;;;;;;;6.12;100.00;100788.25;5025464;28;20045;-78
2024/02/20 03:19:07;;;;;;;15.75;9.38;;;;;;;6.42;100.00;100811.28;5027090;28;20025;-78
2024/02/20 03:21:33;;;;;;;22.35;12.90;;;;;;;6.38;100.00;100783.50;5025997;28;20029;-78
2024/02/20 03:23:59;;;;;;;62.13;32.33;;;;;;;6.29;100.00;100779.22;5027482;28;20120;-79
2024/02/20 03:26:26;;;;;;;27.13;15.13;;;;;;;6.33;100.00;100806.19;5040548;28;20036;-79
2024/02/20 03:28:52;;;;;;;33.95;15.40;;;;;;;6.30;100.00;100795.97;5046298;28;20043;-77
2024/02/20 03:31:18;;;;;;;46.03;20.35;;;;;;;6.27;100.00;100788.34;5045556;28;20040;-78
2024/02/20 03:33:43;;;;;;;49.38;21.95;;;;;;;6.43;100.00;100812.91;5038534;28;20036;-78
2024/02/20 03:36:09;;;;;;;88.63;33.95;;;;;;;6.33;100.00;100785.81;5036695;28;20401;-78
2024/02/20 03:38:34;;;;;;;33.42;16.58;;;;;;;6.10;100.00;100774.34;5036707;28;20119;-78
2024/02/20 03:41:00;;;;;;;58.28;26.92;;;;;;;6.23;100.00;100793.16;5046649;28;20028;-79
2024/02/20 03:43:26;;;;;;;77.60;33.92;;;;;;;6.12;100.00;100801.50;5039678;28;20441;-78
2024/02/20 03:45:51;;;;;;;54.83;24.67;;;;;;;6.15;100.00;100798.47;5026331;28;20037;-79
2024/02/20 03:48:17;;;;;;;93.32;37.17;;;;;;;6.42;100.00;100806.00;5035657;28;20033;-78
2024/02/20 03:50:42;;;;;;;113.82;46.38;;;;;;;6.43;100.00;100775.84;5046276;28;20040;-78
2024/02/20 03:53:07;;;;;;;95.35;39.75;;;;;;;6.40;100.00;100793.91;5043281;28;20029;-78
2024/02/20 03:55:33;;;;;;;80.13;32.00;;;;;;;6.39;100.00;100784.31;5028020;28;20033;-78
2024/02/20 03:58:00;;;;;;;121.80;45.10;;;;;;;6.58;100.00;100798.97;5044660;28;20437;-77
2024/02/20 04:00:25;;;;;;;91.68;36.67;;;;;;;6.40;100.00;100788.63;5046808;28;20086;-78
2024/02/20 04:02:53;;;;;;;226.00;85.80;;;;;;;6.69;100.00;100801.19;5045517;28;20025;-78
2024/02/20 04:05:18;;;;;;;124.93;56.83;;;;;;;6.58;100.00;100806.91;5026645;28;20033;-78
2024/02/20 04:07:45;;;;;;;124.10;58.38;;;;;;;6.41;100.00;100809.63;5026720;28;20280;-78
2024/02/20 04:10:12;;;;;;;227.32;102.28;;;;;;;6.60;100.00;100812.88;5025200;28;20029;-78
2024/02/20 04:12:38;;;;;;;166.57;78.73;;;;;;;6.71;100.00;100830.19;5026760;28;20120;-77
2024/02/20 04:15:08;;;;;;;69.50;38.00;;;;;;;6.44;100.00;100814.59;5024670;28;20041;-78
2024/02/20 04:17:34;;;;;;;62.78;31.95;;;;;;;6.15;100.00;100801.13;5025170;28;20461;-78
2024/02/20 04:20:02;;;;;;;46.08;23.98;;;;;;;6.10;100.00;100798.19;5026347;28;20482;-77
2024/02/20 04:22:30;;;;;;;52.50;26.35;;;;;;;6.11;100.00;100802.47;5026587;28;20030;-78
2024/02/20 04:24:56;;;;;;;67.15;33.97;;;;;;;6.39;100.00;100806.31;5043832;28;20302;-78
2024/02/20 04:27:22;;;;;;;57.67;31.73;;;;;;;6.29;100.00;100816.31;5034305;28;20710;-77
2024/02/20 04:29:47;;;;;;;40.17;25.23;;;;;;;6.42;100.00;100784.78;5026308;28;20118;-79
2024/02/20 04:32:12;;;;;;;30.10;16.73;;;;;;;6.47;100.00;100802.81;5026195;28;20430;-77
2024/02/20 04:34:39;;;;;;;52.72;28.60;;;;;;;6.58;100.00;100820.16;5026189;28;20109;-77
2024/02/20 04:37:04;;;;;;;77.50;41.42;;;;;;;6.41;100.00;100809.63;5024635;28;20021;-78
2024/02/20 04:39:30;;;;;;;47.67;23.35;;;;;;;6.49;100.00;100810.59;5024925;28;20033;-79
2024/02/20 04:41:55;;;;;;;40.97;21.73;;;;;;;6.24;100.00;100808.06;5026060;28;20033;-78
2024/02/20 04:44:21;;;;;;;46.10;26.05;;;;;;;6.42;100.00;100827.19;5024991;28;20052;-79
2024/02/20 04:46:46;;;;;;;28.70;17.27;;;;;;;6.52;100.00;100821.69;5031165;28;20958;-78
2024/02/20 04:49:12;;;;;;;33.75;17.38;;;;;;;6.27;100.00;100807.69;5048981;28;20033;-78
2024/02/20 04:51:37;;;;;;;26.75;14.35;;;;;;;6.34;100.00;100797.25;5049868;28;20025;-78
2024/02/20 04:54:02;;;;;;;22.25;12.18;;;;;;;6.19;100.00;100813.88;5039487;28;20041;-78
2024/02/20 04:56:28;;;;;;;13.82;8.70;;;;;;;6.27;100.00;100802.41;5039800;28;20486;-78
2024/02/20 04:58:53;;;;;;;21.33;11.98;;;;;;;6.13;100.00;100784.59;5029571;28;20029;-79
2024/02/20 05:01:19;;;;;;;20.75;11.52;;;;;;;6.23;100.00;100811.69;5029390;28;20025;-77
2024/02/20 05:03:46;;;;;;;79.28;41.17;;;;;;;6.25;100.00;100817.66;5029629;28;20033;-79
2024/02/20 05:06:11;;;;;;;36.67;20.17;;;;;;;6.23;100.00;100787.84;5028737;28;20029;-77
2024/02/20 05:08:37;;;;;;;32.90;20.45;;;;;;;6.38;100.00;100825.06;5029739;28;20045;-77
2024/02/20 05:11:03;;;;;;;38.13;24.02;;;;;;;6.27;100.00;100826.25;5029595;28;20030;-79
2024/02/20 05:13:28;;;;;;;17.90;12.25;;;;;;;6.38;100.00;100812.63;5029302;28;20065;-78
2024/02/20 05:15:54;;;;;;;17.92;11.02;;;;;;;6.61;100.00;100831.22;5029512;28;20057;-77
2024/02/20 05:18:19;;;;;;;16.30;10.35;;;;;;;6.53;100.00;100835.75;5035339;28;20036;-79
2024/02/20 05:20:44;;;;;;;14.18;8.35;;;;;;;6.63;100.00;100825.75;5049295;28;20060;-78
2024/02/20 05:23:10;;;;;;;16.63;9.30;;;;;;;6.88;100.00;100839.69;5047009;28;20078;-77
2024/02/20 05:25:35;;;;;;;14.45;9.10;;;;;;;6.57;100.00;100819.31;5029013;28;20133;-78
2024/02/20 05:28:00;;;;;;;21.17;12.73;;;;;;;6.54;100.00;100824.13;5034137;28;20496;-77
2024/02/20 05:30:26;;;;;;;17.42;11.02;;;;;;;6.51;100.00;100816.53;5048530;28;20037;-78
2024/02/20 05:32:51;;;;;;;17.42;9.85;;;;;;;6.52;100.00;100820.84;5047665;28;20115;-78
2024/02/20 05:35:17;;;;;;;32.17;15.82;;;;;;;6.40;100.00;100805.34;5030159;28;20387;-78
2024/02/20 05:37:43;;;;;;;19.88;11.52;;;;;;;6.57;100.00;100837.06;5028401;28;20022;-78
2024/02/20 05:40:15;;;;;;;15.00;8.57;;;;;;;6.36;100.00;100840.31;5027617;28;20405;-78
2024/02/20 05:42:41;;;;;;;13.60;7.80;;;;;;;6.32;100.00;100828.41;5029003;28;20049;-79
2024/02/20 05:45:07;;;;;;;15.30;8.38;;;;;;;6.72;100.00;100853.88;5027614;28;20072;-78
2024/02/20 05:47:33;;;;;;;15.70;8.82;;;;;;;6.48;100.00;100824.81;5028863;28;20030;-79
2024/02/20 05:49:59;;;;;;;12.50;7.20;;;;;;;6.63;100.00;100834.53;5028205;28;20033;-78
2024/02/20 05:52:24;;;;;;;14.00;9.02;;;;;;;6.67;100.00;100852.75;5028709;28;20647;-79
2024/02/20 05:54:50;;;;;;;56.53;41.28;;;;;;;6.48;100.00;100840.72;5028833;28;20471;-77
2024/02/20 05:57:15;;;;;;;19.85;9.38;;;;;;;6.68;100.00;100855.22;5028885;28;20025;-78
2024/02/20 05:59:41;;;;;;;18.90;11.70;;;;;;;6.35;100.00;100834.16;5026174;28;20059;-78
2024/02/20 06:02:06;;;;;;;439.25;254.90;;;;;;;6.44;100.00;100864.94;5028727;28;20415;-79
2024/02/20 06:04:31;;;;;;;73.03;47.47;;;;;;;6.44;100.00;100867.59;5028356;28;20033;-78
2024/02/20 06:06:57;;;;;;;50.20;29.42;;;;;;;6.08;100.00;100826.66;5028047;28;20026;-78
2024/02/20 06:09:22;;;;;;;32.08;22.00;;;;;;;6.34;100.00;100852.91;5028424;28;20037;-77
2024/02/20 06:11:48;;;;;;;26.25;17.45;;;;;;;6.33;100.00;100848.59;5028290;28;20029;-78
2024/02/20 06:14:13;;;;;;;25.25;19.15;;;;;;;6.32;100.00;100857.53;5028519;28;20017;-77
2024/02/20 06:16:40;;;;;;;18.42;14.00;;;;;;;6.33;100.00;100875.88;5028114;28;20058;-77
2024/02/20 06:19:06;;;;;;;18.58;15.07;;;;;;;6.19;100.00;100844.81;5026978;28;20033;-77
2024/02/20 06:21:31;;;;;;;33.55;25.40;;;;;;;6.47;100.00;100849.69;5023942;28;20087;-77
2024/02/20 06:23:57;;;;;;;31.08;18.08;;;;;;;6.39;100.00;100866.44;5031593;28;20021;-78
2024/02/20 06:26:22;;;;;;;25.55;16.25;;;;;;;6.07;100.00;100838.25;5041904;28;20025;-78
2024/02/20 06:28:48;;;;;;;21.42;14.07;;;;;;;6.51;100.00;100866.91;5028036;28;20030;-78
2024/02/20 06:31:14;;;;;;;19.48;14.40;;;;;;;6.73;100.00;100870.59;5027859;28;20417;-77
2024/02/20 06:33:41;;;;;;;14.82;11.13;;;;;;;6.66;100.00;100864.34;5027847;28;20387;-79
2024/02/20 06:36:07;;;;;;;19.75;13.45;;;;;;;6.63;100.00;100876.94;5028373;28;20063;-78
2024/02/20 06:38:33;;;;;;;33.55;19.98;;;;;;;6.64;100.00;100846.78;5026244;28;20088;-77
2024/02/20 06:40:59;;;;;;;26.33;18.25;;;;;;;6.84;100.00;100879.00;5027436;28;20033;-77
2024/02/20 06:43:25;;;;;;;19.95;15.23;;;;;;;6.65;100.00;100890.03;5027695;28;20029;-78
2024/02/20 06:45:52;;;;;;;20.48;13.15;;;;;;;6.79;100.00;100869.91;5026723;28;20087;-79
2024/02/20 06:48:18;;;;;;;37.55;24.98;;;;;;;6.81;100.00;100895.25;5027560;28;20104;-79
2024/02/20 06:50:43;;;;;;;25.55;17.27;;;;;;;6.72;100.00;100880.38;5027536;28;20128;-79
2024/02/20 06:53:09;;;;;;;25.02;17.08;;;;;;;6.81;100.00;100900.53;5026017;28;20033;-77
2024/02/20 06:55:34;;;;;;;20.67;10.50;;;;;;;6.95;100.00;100884.91;5026228;28;20775;-78
2024/02/20 06:58:00;;;;;;;16.45;9.38;;;;;;;6.90;100.00;100887.25;5027651;28;20112;-79
2024/02/20 07:00:26;;;;;;;15.25;9.00;;;;;;;6.96;100.00;100897.16;5026975;28;20034;-78
2024/02/20 07:02:51;;;;;;;16.80;9.75;;;;;;;7.20;100.00;100910.25;5025746;28;20574;-78
2024/02/20 07:05:17;;;;;;;15.50;8.18;;;;;;;6.96;100.00;100887.34;5025267;28;20041;-79
2024/02/20 07:07:44;;;;;;;15.77;9.98;;;;;;;7.18;100.00;100911.44;5027697;28;20038;-79
2024/02/20 07:10:10;;;;;;;12.90;8.40;;;;;;;7.17;100.00;100905.31;5026973;28;20037;-79
2024/02/20 07:12:35;;;;;;;39.13;22.88;;;;;;;7.00;100.00;100911.72;5027076;28;20044;-78
2024/02/20 07:15:02;;;;;;;20.67;13.90;;;;;;;6.95;100.00;100900.81;5026092;28;20045;-77
2024/02/20 07:17:28;;;;;;;16.38;11.30;;;;;;;7.05;100.00;100909.38;5027584;28;20037;-78
2024/02/20 07:19:55;;;;;;;19.40;13.88;;;;;;;6.98;100.00;100911.88;5027603;28;20037;-79
2024/02/20 07:22:21;;;;;;;19.70;15.25;;;;;;;6.89;100.00;100886.41;5044519;28;20029;-78
2024/02/20 07:24:46;;;;;;;15.00;10.05;;;;;;;7.00;100.00;100895.81;5040229;28;20044;-79
2024/02/20 07:27:12;;;;;;;29.77;20.40;;;;;;;6.77;100.00;100859.47;5026828;28;20036;-77
2024/02/20 07:29:41;;;;;;;18.42;11.65;;;;;;;7.03;100.00;100884.84;5027114;28;20042;-77
2024/02/20 07:32:08;;;;;;;22.55;17.02;;;;;;;7.16;100.00;100903.66;5040952;28;20518;-78
2024/02/20 07:34:34;;;;;;;28.88;18.65;;;;;;;6.96;100.00;100902.44;5037081;28;20029;-79
2024/02/20 07:36:59;;;;;;;34.30;22.52;;;;;;;7.01;100.00;100884.22;5027293;28;20040;-79
2024/02/20 07:39:25;;;;;;;23.08;15.40;;;;;;;7.01;100.00;100884.22;5027955;28;20479;-78
2024/02/20 07:41:51;;;;;;;20.73;12.68;;;;;;;7.12;100.00;100883.78;5045186;28;20466;-79
2024/02/20 07:44:17;;;;;;;12.70;7.88;;;;;;;6.90;100.00;100922.53;5037951;28;20198;-79
2024/02/20 07:46:42;;;;;;;12.82;8.15;;;;;;;6.76;100.00;100881.69;5027276;28;20570;-78
2024/02/20 07:49:08;;;;;;;13.50;9.20;;;;;;;6.90;100.00;100876.63;5026386;28;20091;-78
2024/02/20 07:51:34;;;;;;;18.70;11.45;;;;;;;7.21;100.00;100900.47;5026834;28;20026;-79
2024/02/20 07:53:59;;;;;;;24.80;13.48;;;;;;;6.99;100.00;100880.91;5025573;28;20621;-78
2024/02/20 07:56:26;;;;;;;18.33;10.88;;;;;;;7.21;100.00;100901.31;5025896;28;20101;-78
2024/02/20 07:58:51;;;;;;;23.35;14.32;;;;;;;7.16;100.00;100893.03;5029188;28;20020;-79
2024/02/20 08:01:19;;;;;;;14.30;8.60;;;;;;;7.13;100.00;100897.88;5037414;28;20108;-78
2024/02/20 08:03:46;;;;;;;17.00;11.77;;;;;;;7.20;100.00;100902.31;5036248;28;20087;-78
2024/02/20 08:06:12;;;;;;;23.75;14.05;;;;;;;7.50;100.00;100907.75;5026242;28;20104;-78
2024/02/20 08:08:37;;;;;;;15.73;10.27;;;;;;;7.35;100.00;100893.56;5025037;28;20164;-78
2024/02/20 08:11:03;;;;;;;14.77;9.07;;;;;;;7.42;100.00;100883.91;5026269;28;20494;-78
2024/02/20 08:13:28;;;;;;;13.35;8.40;;;;;;;7.62;100.00;100887.72;5026731;28;20112;-78
2024/02/20 08:15:53;;;;;;;15.27;9.40;;;;;;;7.46;100.00;100887.88;5025179;28;20050;-79
2024/02/20 08:18:19;;;;;;;13.32;7.60;;;;;;;7.48;100.00;100896.47;5026871;28;20553;-79
2024/02/20 08:20:48;;;;;;;13.52;9.05;;;;;;;7.39;100.00;100886.91;5026016;28;20359;-78
2024/02/20 08:23:13;;;;;;;13.70;9.07;;;;;;;7.62;100.00;100916.94;5029928;28;20064;-79
2024/02/20 08:25:39;;;;;;;15.48;9.05;;;;;;;7.65;100.00;100916.56;5030594;28;20026;-79
2024/02/20 08:28:05;;;;;;;20.48;9.77;;;;;;;7.57;100.00;100911.31;5030062;28;20116;-78
2024/02/20 08:30:30;;;;;;;18.60;10.48;;;;;;;7.60;100.00;100889.75;5030696;28;20052;-78
2024/02/20 08:32:55;;;;;;;14.38;8.57;;;;;;;7.80;100.00;100910.47;5030307;28;20025;-78
2024/02/20 08:35:21;;;;;;;15.80;9.35;;;;;;;7.59;100.00;100905.84;5029961;28;20112;-78
2024/02/20 08:37:47;;;;;;;13.10;8.98;;;;;;;7.64;100.00;100914.94;5030600;28;20032;-78
2024/02/20 08:40:12;;;;;;;14.90;9.30;;;;;;;7.56;100.00;100925.59;5039231;28;20029;-78
2024/02/20 08:42:38;;;;;;;15.27;10.25;;;;;;;7.73;100.00;100905.06;5044527;28;20029;-78
2024/02/20 08:45:04;;;;;;;14.40;10.45;;;;;;;7.60;100.00;100872.97;5039508;28;20156;-77
2024/02/20 08:47:31;;;;;;;15.85;10.50;;;;;;;7.64;100.00;100917.56;5030334;28;20577;-79
2024/02/20 08:49:57;;;;;;;14.65;9.50;;;;;;;7.51;100.00;100906.72;5040841;28;20045;-78
2024/02/20 08:52:22;;;;;;;16.17;11.02;;;;;;;7.71;100.00;100906.25;5033663;28;20533;-78
2024/02/20 08:54:47;;;;;;;38.95;21.17;;;;;;;7.20;100.00;100899.66;5029807;28;20063;-78
2024/02/20 08:57:13;;;;;;;102.63;48.03;;;;;;;7.36;100.00;100908.50;5030357;28;20028;-79
2024/02/20 08:59:39;;;;;;;189.75;78.95;;;;;;;7.18;100.00;100917.56;5036310;28;20051;-78
2024/02/20 09:02:04;;;;;;;89.82;42.63;;;;;;;7.38;100.00;100902.00;5038498;28;20029;-78
2024/02/20 09:04:29;;;;;;;28.92;16.05;;;;;;;7.47;100.00;100912.56;5030403;28;20029;-78
2024/02/20 09:06:56;;;;;;;38.20;24.13;;;;;;;7.29;100.00;100904.91;5031168;28;20021;-79
2024/02/20 09:09:22;;;;;;;33.30;26.30;;;;;;;7.58;100.00;100912.13;5031050;28;20032;-79
2024/02/20 09:11:51;;;;;;;87.47;60.58;;;;;;;7.08;100.00;100901.06;5037227;28;20102;-79
2024/02/20 09:14:21;;;;;;;67.28;42.22;;;;;;;7.41;100.00;100919.41;5038155;28;20048;-78
2024/02/20 09:16:47;;;;;;;65.63;36.80;;;;;;;7.41;100.00;100917.56;5038625;28;20063;-79
2024/02/20 09:19:13;;;;;;;90.03;48.67;;;;;;;8.35;100.00;100922.53;5037583;28;20057;-80
2024/02/20 09:21:38;;;;;;;88.22;41.22;;;;;;;10.00;100.00;100911.19;5037518;28;20021;-80
2024/02/20 09:24:04;;;;;;;92.43;43.55;;;;;;;8.94;100.00;100913.69;5037918;28;20029;-79
2024/02/20 09:26:33;;;;;;;27.70;15.98;;;;;;;8.54;100.00;100931.00;5057398;28;20029;-79
2024/02/20 09:28:58;;;;;;;21.48;13.73;;;;;;;7.74;100.00;100884.63;5051297;28;20051;-79
2024/02/20 09:31:23;;;;;;;19.92;12.70;;;;;;;7.78;100.00;100920.44;5038326;28;20049;-78
2024/02/20 09:33:49;;;;;;;21.63;13.38;;;;;;;7.57;100.00;100916.63;5055009;28;20053;-80
2024/02/20 09:36:15;;;;;;;24.23;14.50;;;;;;;7.64;100.00;100896.34;5028739;28;20032;-79
2024/02/20 09:38:40;;;;;;;23.33;13.63;;;;;;;7.61;100.00;100914.44;5027796;28;20064;-78
2024/02/20 09:41:06;;;;;;;21.73;13.35;;;;;;;7.25;100.00;100901.75;5032760;28;20028;-78
2024/02/20 09:43:32;;;;;;;22.73;14.07;;;;;;;7.46;100.00;100919.72;5037399;28;20052;-80
2024/02/20 09:46:06;;;;;;;20.60;12.70;;;;;;;7.39;100.00;100916.09;5033516;28;20495;-78
2024/02/20 09:48:32;;;;;;;21.42;14.35;;;;;;;7.34;100.00;100907.88;5025601;28;20032;-79
2024/02/20 09:51:03;;;;;;;23.52;13.45;;;;;;;7.43;100.00;100912.09;5034820;28;20045;-78
2024/02/20 09:53:30;;;;;;;25.73;14.48;;;;;;;7.82;100.00;100908.44;5031994;28;20036;-79
2024/02/20 09:55:56;;;;;;;21.07;13.63;;;;;;;7.92;100.00;100916.16;5032036;28;20079;-79
2024/02/20 09:58:22;;;;;;;22.95;13.10;;;;;;;7.79;100.00;100887.59;5030662;28;20804;-78
2024/02/20 10:00:47;;;;;;;22.40;14.13;;;;;;;7.78;100.00;100877.94;5030869;28;20060;-79
2024/02/20 10:03:14;;;;;;;24.23;13.77;;;;;;;7.93;100.00;100892.09;5029970;28;20406;-79
2024/02/20 10:05:45;;;;;;;20.90;13.10;;;;;;;7.93;100.00;100905.38;5029948;28;20482;-79
2024/02/20 10:08:11;;;;;;;21.58;12.85;;;;;;;7.91;100.00;100910.03;5029899;28;20063;-78
2024/02/20 10:10:38;;;;;;;19.45;11.93;;;;;;;7.73;100.00;100899.75;5024501;28;20034;-79
2024/02/20 10:13:06;;;;;;;17.70;11.43;;;;;;;7.92;100.00;100874.50;5026217;28;20399;-79
2024/02/20 10:15:31;;;;;;;20.88;14.05;;;;;;;8.03;100.00;100876.72;5017854;28;20156;-79
2024/02/20 10:18:01;;;;;;;19.88;11.68;;;;;;;8.27;100.00;100911.97;5026335;28;20457;-79
2024/02/20 10:20:28;;;;;;;15.32;10.50;;;;;;;8.00;100.00;100900.97;5021794;28;20033;-78
2024/02/20 10:23:10;;;;;;;18.43;11.63;;;;;;;8.14;100.00;100891.38;5017275;28;20457;-79
2024/02/20 10:25:37;;;;;;;17.95;10.82;;;;;;;7.88;100.00;100893.63;5022070;28;20041;-79
2024/02/20 10:28:06;;;;;;;20.48;11.23;;;;;;;7.97;100.00;100893.38;5028357;28;20031;-80
2024/02/20 10:30:32;;;;;;;18.08;10.50;;;;;;;7.98;100.00;100887.03;5028526;28;20044;-79
2024/02/20 10:32:58;;;;;;;21.55;11.57;;;;;;;8.09;100.00;100853.06;5028839;28;20120;-79
2024/02/20 10:35:25;;;;;;;21.17;11.95;;;;;;;8.12;100.00;100876.63;5027679;28;20549;-79
2024/02/20 10:38:01;;;;;;;19.65;12.90;;;;;;;8.41;100.00;100897.91;5028194;28;20040;-79
2024/02/20 10:40:26;;;;;;;20.55;12.38;;;;;;;8.24;100.00;100880.47;5029661;28;20041;-79
2024/02/20 10:42:54;;;;;;;19.40;11.63;;;;;;;8.21;100.00;100879.03;5027445;28;20032;-79
2024/02/20 10:45:21;;;;;;;18.13;11.00;;;;;;;8.15;100.00;100865.63;5026516;28;20033;-79
2024/02/20 10:47:47;;;;;;;20.23;12.88;;;;;;;8.15;100.00;100860.31;5019164;28;20057;-79
2024/02/20 10:50:14;;;;;;;18.05;12.05;;;;;;;8.08;100.00;100848.78;5020836;28;20430;-80
2024/02/20 10:52:40;;;;;;;17.83;11.20;;;;;;;8.32;100.00;100867.09;5037740;28;20033;-79
2024/02/20 10:55:07;;;;;;;18.60;11.40;;;;;;;8.44;100.00;100870.16;5027900;28;20447;-79
2024/02/20 10:57:34;;;;;;;17.27;10.43;;;;;;;7.97;100.00;100842.09;5027796;28;20175;-80
2024/02/20 11:00:09;;;;;;;20.33;11.57;;;;;;;8.22;100.00;100866.56;5027118;28;20044;-80
2024/02/20 11:02:38;;;;;;;17.65;10.88;;;;;;;8.16;100.00;100838.88;5044473;28;20029;-79
2024/02/20 11:05:05;;;;;;;18.27;10.95;;;;;;;8.36;100.00;100852.44;5031146;28;20033;-79
2024/02/20 11:07:31;;;;;;;17.00;10.38;;;;;;;8.05;100.00;100834.84;5033064;28;20075;-79